Forside
METAR-TAF:

METAR-TAF

Lufthavne :

Koror, Babeldaob, Palau

Breddekreds: 07-22N, længdekreds: 134-32E, højde: 54 m

Aktuelle vejr

Denne rapport blev lavet for 1 time og 14 minutter siden, kl. 15:54 UTC
Vind stille
Temperatur 25°C
Fugtighed 94%
Tryk 1010 hPa
Sigt: 24.1 km
Spredte skyer i en højde af 1600 ft
Brudte skyer i en højde af 30000 ft

METAR: PTRO 251554Z 00000KT 15SM SCT016 BKN300 25/24 A2982

Tid: 02:08 (17:08 UTC)

Vejrudsigter

Denne rapport blev lavet for 5 timer og 34 minutter siden, kl. 11:34 UTC
Foreløbig gælder fra 25 på 12 UTC til 26 på 12 UTC
Vind 5 kt fra varierende retninger
Sigt: 10 km
Spredte skyer i en højde af 1600 ft
Brudte skyer i en højde af 12000 ft
byger i nærheden

TAF: PTRO 251134Z 2512/2612 VRB05KT P6SM VCSH SCT016 BKN120

Vejrobservationer og prognoser fra mere end 4000 lufthavne (METAR og TAF).

De gule og røde prikker repræsenterer de meteorologiske stationer.

Flyt musen over at se navnet på stationen.

Så klik over at se vejr observationer og prognoser.

At skifte det kort: Klik på de grønne knapper med et sort kors for at zoome ind; på den grønne knap med en bindestreg for at zoome ud; eller på de grønne pile for tilstødende kort.


METAR-TAF: